Latest Weather Observations for Paraburdoo

IDW60801

Issued at 2:04 pm WST Tuesday 20 April 2021 (issued every 10 minutes, with the page automatically refreshed every 10 minutes)

About weather observations | Map of weather stations | Latest weather observations for WA | Other Formats
Station Details ID: 007185 Name: PARABURDOO AERO Lat: -23.17 Lon: 117.75 Height: 423.7 m
Data from the previous 72 hours. | See also: Recent months at Paraburdoo
Date/Time
WST
Temp
°C
App
Temp
°C
Dew
Point
°C
Rel
Hum
%
Delta-T
°C
Wind Press
QNH
hPa
Press
MSL
hPa
Rain since
9am
mm
Dir  Spd
km/h
Gust
km/h
Spd
kts
Gust
kts
20/02:00pm 29.0 21.8 9.2 29 11.2 ENE 37 52 20 28 1012.6 1009.9 0.0
20/01:47pm 29.4 24.8 9.5 29 11.3 E 24 52 13 28 1012.8 1010.1 0.0
20/01:46pm 29.7 25.5 9.8 29 11.4 E 22 44 12 24 1012.9 1010.2 0.0
20/01:30pm 31.7 27.9 3.7 17 14.7 S 13 20 7 11 1012.6 1009.9 0.0
20/01:00pm 31.2 27.8 4.1 18 14.3 SSE 11 17 6 9 1012.9 1010.2 0.0
20/12:30pm 30.6 26.7 3.6 18 14.0 WSW 13 24 7 13 1013.3 1010.6 0.0
20/12:00pm 31.6 29.0 5.9 20 14.0 ENE 9 19 5 10 1013.7 1010.9 0.0
20/11:30am 30.4 27.7 5.6 21 13.3 NNE 9 15 5 8 1014.1 1011.3 0.0
20/11:00am 29.3 27.1 5.4 22 12.7 SW 6 9 3 5 1014.5 1011.7 0.0
20/10:30am 28.8 27.1 8.5 28 11.3 NE 7 15 4 8 1014.8 1012.1 0.0
20/10:00am 27.7 25.6 8.1 29 10.8 ENE 9 15 5 8 1015.0 1012.3 0.0
20/09:30am 27.6 26.1 9.0 31 10.4 SE 7 11 4 6 1015.1 1012.4 0.0
20/09:00am 26.1 23.9 9.5 35 9.3 NE 11 15 6 8 1014.9 1012.2 0.0
20/08:30am 25.6 23.4 9.4 36 9.0 ENE 11 13 6 7 1014.8 1012.1 0.0
20/08:00am 24.1 21.5 9.3 39 8.2 ENE 13 17 7 9 1014.6 1011.9 0.0
20/07:30am 21.3 20.1 10.2 49 6.1 ENE 7 11 4 6 1014.3 1011.5 0.0
20/07:00am 18.0 16.4 10.1 60 4.3 ENE 9 11 5 6 1013.9 1011.1 0.0
20/06:30am 17.7 15.2 9.8 60 4.3 ENE 13 15 7 8 1013.4 1010.7 0.0
20/06:00am 17.5 15.8 9.7 60 4.2 ENE 9 11 5 6 1013.0 1010.3 0.0
20/05:30am 17.5 15.8 9.7 60 4.2 E 9 11 5 6 1012.7 1010.0 0.0
20/05:00am 17.3 16.0 10.0 62 3.9 ESE 7 11 4 6 1012.7 1010.0 0.0
20/04:30am 17.9 17.3 9.0 56 4.7 NNE 2 7 1 4 1012.5 1009.8 0.0
20/04:00am 18.4 18.1 8.7 53 5.1 CALM 0 6 0 3 1012.4 1009.7 0.0
20/03:30am 19.2 16.5 8.8 51 5.5 NE 13 13 7 7 1012.4 1009.7 0.0
20/03:00am 19.4 18.0 8.7 50 5.7 SSW 6 11 3 6 1012.4 1009.7 0.0
20/02:30am 19.9 18.3 8.6 48 6.0 NE 7 11 4 6 1012.3 1009.5 0.0
20/02:00am 20.5 17.3 8.5 46 6.4 NE 15 17 8 9 1012.4 1009.7 0.0
20/01:30am 19.2 17.2 8.8 51 5.5 E 9 9 5 5 1012.5 1009.8 0.0
20/01:00am 20.0 17.9 9.6 51 5.7 ENE 11 13 6 7 1012.5 1009.8 0.0
20/12:30am 20.8 19.9 9.1 47 6.3 E 4 7 2 4 1012.6 1009.9 0.0
20/12:00am 20.6 18.7 8.9 47 6.3 E 9 11 5 6 1012.7 1010.0 0.0
 
Date/Time
WST
Temp
°C
App
Temp
°C
Dew
Point
°C
Rel
Hum
%
Delta-T
°C
Wind Press
QNH
hPa
Press
MSL
hPa
Rain since
9am
mm
Dir  Spd
km/h
Gust
km/h
Spd
kts
Gust
kts
19/11:30pm 21.6 20.2 8.8 44 6.9 SSW 6 7 3 4 1012.7 1010.0 0.0
19/11:00pm 21.6 20.0 8.1 42 7.2 ESE 6 9 3 5 1013.0 1010.3 0.0
19/10:30pm 22.7 21.3 7.3 37 8.2 W 4 6 2 3 1013.0 1010.3 0.0
19/10:00pm 22.6 20.7 6.8 36 8.3 NNW 6 9 3 5 1013.1 1010.4 0.0
19/09:30pm 24.6 21.9 5.4 29 9.9 NW 9 11 5 6 1013.2 1010.5 0.0
19/09:00pm 25.4 22.3 5.6 28 10.3 NW 11 13 6 7 1013.1 1010.4 0.0
19/08:30pm 26.8 24.4 5.1 25 11.3 WNW 7 15 4 8 1013.0 1010.3 0.0
19/08:00pm 26.7 23.5 5.1 25 11.3 NNW 11 13 6 7 1012.8 1010.1 0.0
19/07:30pm 26.9 23.7 5.2 25 11.3 NNW 11 13 6 7 1012.6 1009.9 0.0
19/07:00pm 27.8 25.3 4.8 23 12.0 NW 7 9 4 5 1012.4 1009.7 0.0
19/06:30pm 28.7 25.3 4.2 21 12.7 WNW 11 17 6 9 1012.3 1009.5 0.0
19/06:00pm 29.6 25.5 4.3 20 13.2 W 15 22 8 12 1012.1 1009.3 0.0
19/05:30pm 30.7 25.5 3.7 18 14.1 W 20 26 11 14 1011.8 1009.0 0.0
19/05:00pm 31.3 25.5 4.2 18 14.3 W 24 32 13 17 1011.7 1008.9 0.0
19/04:30pm 31.8 25.9 3.8 17 14.7 WSW 24 35 13 19 1011.6 1008.8 0.0
19/04:00pm 33.0 27.3 4.7 17 15.2 W 24 35 13 19 1011.7 1008.9 0.0
19/03:30pm 32.4 26.7 5.1 18 14.7 NW 24 33 13 18 1011.7 1008.9 0.0
19/03:00pm 32.3 26.8 5.7 19 14.5 W 24 35 13 19 1011.7 1008.9 0.0
19/02:49pm 32.3 27.1 5.7 19 14.5 W 22 52 12 28 1011.6 1008.8 0.0
19/02:30pm 32.2 25.7 6.4 20 14.2 WNW 30 44 16 24 1011.8 1009.0 0.0
19/02:00pm 32.0 27.5 7.0 21 13.9 WNW 20 30 11 16 1012.1 1009.3 0.0
19/01:30pm 32.1 27.9 8.4 23 13.4 WNW 20 35 11 19 1012.6 1009.9 0.0
19/01:00pm 30.9 25.4 7.4 23 13.0 WNW 26 43 14 23 1013.1 1010.4 0.0
19/12:30pm 31.5 27.0 8.5 24 13.0 WNW 22 35 12 19 1013.6 1010.8 0.0
19/12:00pm 31.3 26.4 8.3 24 13.0 WNW 24 33 13 18 1014.1 1011.3 0.0
19/11:30am 30.2 24.4 6.1 22 13.0 WNW 26 37 14 20 1014.6 1011.9 0.0
19/11:00am 30.2 26.1 6.1 22 13.0 WNW 17 28 9 15 1015.0 1012.3 0.0
19/10:30am 29.7 26.7 7.6 25 12.2 NNW 13 26 7 14 1015.4 1012.7 0.0
19/10:00am 28.6 24.9 7.8 27 11.5 NNW 17 24 9 13 1015.9 1013.2 0.0
19/09:30am 28.2 24.4 9.0 30 10.8 N 19 24 10 13 1016.3 1013.5 0.0
19/09:00am 27.5 23.8 9.3 32 10.2 NNE 19 26 10 14 1016.5 1013.7 0.0
19/08:30am 26.2 22.9 10.8 38 8.8 NE 19 24 10 13 1016.4 1013.6 0.0
19/08:00am 24.6 21.2 11.2 43 7.7 NE 20 26 11 14 1016.5 1013.7 0.0
19/07:30am 23.1 20.4 10.2 44 7.2 ENE 15 19 8 10 1016.5 1013.7 0.0
19/07:00am 21.3 20.7 14.7 66 3.9 NE 11 13 6 7 1016.5 1013.7 0.0
19/06:30am 19.4 18.9 13.8 70 3.3 ENE 9 11 5 6 1016.3 1013.5 0.0
19/06:00am 19.1 18.6 13.9 72 3.0 ESE 9 11 5 6 1016.1 1013.3 0.0
19/05:30am 19.2 19.2 13.6 70 3.3 NE 6 9 3 5 1015.9 1013.2 0.0
19/05:00am 20.3 20.3 13.5 65 4.0 NE 6 7 3 4 1015.8 1013.1 0.0
19/04:30am 21.2 20.6 13.4 61 4.6 NNE 9 11 5 6 1015.8 1013.1 0.0
19/04:00am 21.4 20.6 12.8 58 5.0 NE 9 11 5 6 1015.8 1013.1 0.0
19/03:30am 22.4 22.1 12.6 54 5.7 NE 6 9 3 5 1015.9 1013.2 0.0
19/03:00am 22.4 22.5 12.6 54 5.7 NE 4 9 2 5 1016.1 1013.3 0.0
19/02:30am 23.4 23.0 12.4 50 6.4 ENE 6 7 3 4 1016.1 1013.3 0.0
19/02:00am 25.2 24.4 12.8 46 7.3 NW 9 11 5 6 1016.2 1013.4 0.0
19/01:30am 25.1 23.7 12.3 45 7.5 WNW 11 15 6 8 1016.2 1013.4 0.0
19/01:00am 25.1 23.6 10.6 40 8.2 NW 9 13 5 7 1016.3 1013.5 0.0
19/12:30am 24.0 22.8 11.7 46 7.1 NE 9 11 5 6 1016.3 1013.5 0.0
19/12:00am 24.2 23.1 11.9 46 7.1 NE 9 11 5 6 1016.5 1013.7 0.0
 
Date/Time
WST
Temp
°C
App
Temp
°C
Dew
Point
°C
Rel
Hum
%
Delta-T
°C
Wind Press
QNH
hPa
Press
MSL
hPa
Rain since
9am
mm
Dir  Spd
km/h
Gust
km/h
Spd
kts
Gust
kts
18/11:30pm 24.2 23.5 11.9 46 7.1 ENE 7 11 4 6 1016.5 1013.7 0.0
18/11:00pm 23.8 24.6 12.4 48 6.6 CALM 0 6 0 3 1016.7 1014.0 0.0
18/10:30pm 23.6 22.6 12.3 49 6.6 ENE 9 9 5 5 1016.9 1014.2 0.0
18/10:00pm 23.7 24.6 13.0 51 6.3 CALM 0 0 0 0 1017.0 1014.3 0.0
18/09:30pm 23.9 24.7 12.5 49 6.7 CALM 0 0 0 0 1017.1 1014.4 0.0
18/09:00pm 27.0 25.1 8.9 32 10.1 NNW 9 9 5 5 1017.3 1014.6 0.0
18/08:30pm 27.4 25.6 9.3 32 10.2 NNW 9 11 5 6 1017.3 1014.6 0.0
18/08:00pm 28.0 26.4 8.8 30 10.7 NNW 7 9 4 5 1017.2 1014.5 0.0
18/07:30pm 28.2 26.3 9.0 30 10.8 NNW 9 9 5 5 1017.2 1014.5 0.0
18/07:00pm 28.7 27.0 8.4 28 11.3 NNW 7 9 4 5 1016.9 1014.2 0.0
18/06:30pm 29.5 27.3 8.0 26 12.0 NW 9 11 5 6 1016.7 1014.0 0.0
18/06:00pm 30.3 27.6 7.5 24 12.6 WNW 11 13 6 7 1016.5 1013.7 0.0
18/05:30pm 31.3 28.3 7.7 23 13.2 W 13 19 7 10 1016.2 1013.4 0.0
18/05:00pm 31.9 28.3 6.9 21 13.8 NW 15 20 8 11 1015.9 1013.2 0.0
18/04:30pm 32.3 28.4 7.2 21 14.0 NW 17 26 9 14 1015.8 1013.1 0.0
18/04:00pm 32.3 29.0 7.9 22 13.7 NNW 15 20 8 11 1015.7 1013.0 0.0
18/03:30pm 32.2 28.7 7.1 21 13.9 W 15 26 8 14 1015.7 1013.0 0.0
18/03:00pm 32.2 30.0 7.8 22 13.7 W 9 20 5 11 1015.7 1013.0 0.0
18/02:30pm 31.9 29.6 7.5 22 13.6 W 9 17 5 9 1015.8 1013.1 0.0
18/02:00pm 32.2 30.9 7.8 22 13.7 ESE 4 7 2 4 1016.2 1013.4 0.0
18/01:30pm 32.4 29.3 7.3 21 14.0 NNW 13 32 7 17 1016.4 1013.6 0.0
18/01:00pm 32.2 29.7 6.4 20 14.2 NW 9 17 5 9 1016.9 1014.2 0.0
18/12:30pm 31.8 28.1 6.1 20 14.0 NE 15 28 8 15 1017.5 1014.8 0.0
18/12:00pm 31.9 27.8 6.2 20 14.0 NE 17 24 9 13 1018.1 1015.4 0.0
18/11:30am 30.6 26.6 5.1 20 13.6 NE 15 24 8 13 1018.8 1016.1 0.0
18/11:00am 29.9 25.1 4.5 20 13.3 NE 19 28 10 15 1019.3 1016.6 0.0
18/10:30am 29.8 24.9 5.1 21 13.1 NE 20 30 11 16 1019.6 1016.9 0.0
18/10:00am 28.1 22.3 4.4 22 12.3 ENE 24 32 13 17 1019.9 1017.2 0.0
18/09:30am 28.0 22.3 5.0 23 12.1 E 24 30 13 16 1020.1 1017.4 0.0
18/09:00am 26.7 20.9 4.5 24 11.4 ENE 24 30 13 16 1020.3 1017.6 0.0
18/08:30am 25.9 20.2 4.9 26 10.9 E 24 33 13 18 1020.3 1017.6 0.0
18/08:00am 24.5 19.6 5.3 29 9.9 E 20 30 11 16 1020.3 1017.6 0.0
18/07:30am 23.8 19.2 5.7 31 9.4 E 19 26 10 14 1020.0 1017.3 0.0
18/07:00am 23.2 19.2 6.5 34 8.7 E 17 24 9 13 1019.7 1017.0 0.0
18/06:30am 22.7 18.9 7.7 38 8.0 E 17 22 9 12 1019.4 1016.7 0.0
18/06:00am 22.7 19.2 8.8 41 7.5 E 17 20 9 11 1019.1 1016.4 0.0
18/05:30am 22.9 20.4 9.7 43 7.3 E 13 17 7 9 1018.8 1016.1 0.0
18/05:00am 22.8 20.1 10.3 45 7.0 E 15 19 8 10 1018.6 1015.8 0.0
18/04:30am 22.1 21.3 11.2 50 6.2 ENE 6 13 3 7 1018.2 1015.5 0.0
18/04:00am 23.2 21.8 10.9 46 6.9 E 9 15 5 8 1018.1 1015.4 0.0
18/03:30am 23.2 20.8 11.3 47 6.8 E 15 19 8 10 1017.8 1015.1 0.0
18/03:00am 22.5 21.2 12.4 52 5.8 E 11 15 6 8 1017.8 1015.1 0.0
18/02:30am 22.3 21.5 12.8 55 5.5 E 9 9 5 5 1017.7 1015.0 0.0
18/02:00am 22.7 21.5 12.9 54 5.7 ENE 11 13 6 7 1017.8 1015.1 0.0
18/01:30am 23.1 22.1 13.3 54 5.8 E 11 13 6 7 1017.9 1015.2 0.0
18/01:00am 23.1 22.7 13.0 53 5.9 E 7 11 4 6 1018.0 1015.3 0.0
18/12:30am 23.3 22.9 12.9 52 6.1 NE 7 9 4 5 1018.1 1015.4 0.0
18/12:00am 24.2 23.2 13.4 51 6.4 NE 11 13 6 7 1018.2 1015.5 0.0
 
Date/Time
WST
Temp
°C
App
Temp
°C
Dew
Point
°C
Rel
Hum
%
Delta-T
°C
Wind Press
QNH
hPa
Press
MSL
hPa
Rain since
9am
mm
Dir  Spd
km/h
Gust
km/h
Spd
kts
Gust
kts
17/11:30pm 24.8 23.3 13.0 47 7.0 NE 13 15 7 8 1018.3 1015.6 0.0
17/11:00pm 25.2 23.8 13.4 48 7.0 NE 13 15 7 8 1018.4 1015.7 0.0
17/10:30pm 25.4 23.8 12.9 45 7.4 ENE 13 15 7 8 1018.7 1015.9 0.0
17/10:00pm 25.6 24.9 13.1 46 7.4 ENE 9 13 5 7 1019.0 1016.3 0.0
17/09:30pm 26.7 25.2 13.1 43 8.1 NE 13 15 7 8 1019.0 1016.3 0.0
17/09:00pm 26.6 24.9 12.6 42 8.3 ENE 13 15 7 8 1019.0 1016.3 0.0
17/08:30pm 27.9 26.2 12.3 38 9.2 NNE 13 17 7 9 1018.9 1016.2 0.0
17/08:00pm 27.6 26.3 12.4 39 9.0 NE 11 15 6 8 1018.7 1015.9 0.0
17/07:30pm 28.4 27.7 11.5 35 9.9 N 6 7 3 4 1018.2 1015.5 0.0
17/07:00pm 29.2 27.8 10.8 32 10.7 NNE 9 9 5 5 1018.0 1015.3 0.0
17/06:30pm 29.9 27.6 10.5 30 11.3 NNE 13 17 7 9 1017.7 1015.0 0.0
17/06:00pm 30.7 28.4 10.6 29 11.7 NNE 13 17 7 9 1017.4 1014.7 0.0
17/05:30pm 31.5 28.8 10.2 27 12.4 N 15 20 8 11 1017.1 1014.4 0.0
17/05:00pm 32.0 28.8 10.1 26 12.7 NNE 17 28 9 15 1017.0 1014.3 0.0
17/04:30pm 32.1 29.1 10.8 27 12.5 NNE 17 20 9 11 1016.9 1014.2 0.0
17/04:00pm 32.0 30.7 10.1 26 12.7 ENE 7 17 4 9 1017.0 1014.3 0.0
17/03:30pm 31.7 29.8 10.4 27 12.4 NNW 11 20 6 11 1017.0 1014.3 0.0
17/03:00pm 31.5 28.8 10.2 27 12.4 N 15 20 8 11 1017.1 1014.4 0.0
17/02:30pm 32.1 29.0 10.2 26 12.8 N 17 24 9 13 1017.0 1014.3 0.0

Other formats

Comma delimited format used in spreadsheet applications
http://www.bom.gov.au/fwo/IDW60801/IDW60801.94316.axf

JavaScript Object Notation format (JSON) in row-major order
http://www.bom.gov.au/fwo/IDW60801/IDW60801.94316.json

Data quality

Most of these data are generated automatically and are frequently updated. Quality checks on data are not normally performed. It is possible for incorrect values to appear. Refer to information at About Latest Weather Observations and please check the disclaimer before using these data.